createdAt,value
2022-07-31T00:00:12.987Z,8.20
2022-07-31T00:02:39.630Z,7.70
2022-07-31T00:05:06.879Z,6.30
2022-07-31T00:07:33.606Z,8.13
2022-07-31T00:10:00.379Z,8.48
2022-07-31T00:12:26.961Z,6.97
2022-07-31T00:14:53.649Z,8.45
2022-07-31T00:17:20.460Z,6.18
2022-07-31T00:19:47.293Z,6.60
2022-07-31T00:22:13.897Z,7.53
2022-07-31T00:24:40.912Z,6.97
2022-07-31T00:27:08.074Z,7.78
2022-07-31T00:29:34.684Z,7.60
2022-07-31T00:32:01.302Z,8.25
2022-07-31T00:34:28.000Z,7.25
2022-07-31T00:36:54.605Z,10.02
2022-07-31T00:39:21.220Z,6.72
2022-07-31T00:41:47.937Z,7.47
2022-07-31T00:44:14.521Z,8.43
2022-07-31T00:46:42.279Z,7.80
2022-07-31T00:49:12.951Z,8.38
2022-07-31T00:51:40.337Z,6.63
2022-07-31T00:54:08.552Z,7.28
2022-07-31T00:56:35.741Z,7.40
2022-07-31T00:59:02.519Z,7.35
2022-07-31T01:01:29.494Z,7.57
2022-07-31T01:03:57.378Z,7.50
2022-07-31T01:06:24.646Z,6.65
2022-07-31T01:08:52.624Z,6.25
2022-07-31T01:12:24.490Z,7.05
2022-07-31T01:14:54.970Z,6.32
2022-07-31T01:17:23.812Z,9.65
2022-07-31T01:19:52.618Z,7.25
2022-07-31T01:22:46.733Z,6.78
2022-07-31T01:25:34.332Z,8.25
2022-07-31T01:28:20.408Z,7.38
2022-07-31T01:31:04.985Z,8.63
2022-07-31T01:33:46.891Z,7.35
2022-07-31T01:36:17.085Z,8.50
2022-07-31T01:38:48.323Z,11.82
2022-07-31T01:41:17.184Z,7.40
2022-07-31T01:43:48.328Z,8.85
2022-07-31T01:46:17.709Z,8.02
2022-07-31T01:48:45.226Z,7.63
2022-07-31T01:51:13.052Z,7.55
2022-07-31T01:53:41.224Z,7.80
2022-07-31T01:56:09.098Z,7.18
2022-07-31T01:58:38.371Z,8.50
2022-07-31T02:01:09.109Z,6.80
2022-07-31T02:03:43.651Z,7.03
2022-07-31T02:06:13.735Z,8.60
2022-07-31T02:08:41.481Z,7.57
2022-07-31T02:11:08.777Z,7.47
2022-07-31T02:13:36.364Z,8.00
2022-07-31T02:16:04.896Z,7.53
2022-07-31T02:18:33.148Z,7.47
2022-07-31T02:21:01.889Z,8.38
2022-07-31T02:23:28.721Z,9.50
2022-07-31T02:25:55.757Z,8.07
2022-07-31T02:28:23.899Z,9.35
2022-07-31T02:30:51.993Z,7.72
2022-07-31T02:33:21.745Z,8.20
2022-07-31T02:35:50.280Z,8.35
2022-07-31T02:38:23.506Z,9.82
2022-07-31T02:40:51.803Z,11.03
2022-07-31T02:43:19.900Z,10.07
2022-07-31T02:45:47.443Z,9.63
2022-07-31T02:48:14.530Z,8.85
2022-07-31T02:50:42.029Z,11.07
2022-07-31T02:53:09.031Z,10.75
2022-07-31T02:55:36.976Z,9.80
2022-07-31T02:58:06.696Z,7.45
2022-07-31T03:00:33.684Z,11.10
2022-07-31T03:03:01.181Z,10.77
2022-07-31T03:05:28.433Z,9.77
2022-07-31T03:07:55.029Z,11.88
2022-07-31T03:10:22.695Z,8.98
2022-07-31T03:12:52.041Z,9.43
2022-07-31T03:15:20.410Z,8.90
2022-07-31T03:17:48.322Z,9.93
2022-07-31T03:20:16.403Z,10.45
2022-07-31T03:22:43.793Z,8.25
2022-07-31T03:25:11.165Z,8.10
2022-07-31T03:27:55.644Z,10.90
2022-07-31T03:30:25.515Z,8.73
2022-07-31T03:32:55.767Z,15.70
2022-07-31T03:35:24.303Z,10.73
2022-07-31T03:37:51.694Z,10.27
2022-07-31T03:40:18.815Z,11.10
2022-07-31T03:42:47.007Z,7.85
2022-07-31T03:45:13.929Z,7.38
2022-07-31T03:47:41.049Z,7.30
2022-07-31T03:50:09.908Z,10.02
2022-07-31T03:52:37.860Z,13.27
2022-07-31T03:55:05.047Z,8.75
2022-07-31T03:57:34.185Z,8.90
2022-07-31T04:00:03.086Z,9.20
2022-07-31T04:02:31.693Z,10.45
2022-07-31T04:04:59.746Z,9.05
2022-07-31T04:07:26.528Z,7.85
2022-07-31T04:09:54.767Z,11.18
2022-07-31T04:12:23.278Z,9.50
2022-07-31T04:14:51.115Z,9.30
2022-07-31T04:17:17.865Z,8.05
2022-07-31T04:19:45.322Z,10.15
2022-07-31T04:22:12.123Z,8.13
2022-07-31T04:24:40.827Z,8.98
2022-07-31T04:27:12.557Z,10.48
2022-07-31T04:29:39.971Z,9.57
2022-07-31T04:32:07.214Z,10.60
2022-07-31T04:34:35.028Z,11.10
2022-07-31T04:37:01.976Z,10.75
2022-07-31T04:39:28.959Z,13.70
2022-07-31T04:41:57.817Z,10.20
2022-07-31T04:44:24.662Z,12.15
2022-07-31T04:46:52.026Z,11.57
2022-07-31T04:49:19.247Z,9.55
2022-07-31T04:51:46.365Z,10.23
2022-07-31T04:54:14.180Z,9.38
2022-07-31T04:56:44.667Z,10.10
2022-07-31T04:59:13.645Z,9.65
2022-07-31T05:01:43.584Z,9.93
2022-07-31T05:04:14.217Z,10.18
2022-07-31T05:06:49.853Z,9.30
2022-07-31T05:09:19.644Z,10.60
2022-07-31T05:11:52.065Z,14.07
2022-07-31T05:14:21.085Z,9.70
2022-07-31T05:16:48.578Z,11.32
2022-07-31T05:19:16.055Z,11.07
2022-07-31T05:21:53.407Z,9.95
2022-07-31T05:24:33.229Z,10.27
2022-07-31T05:27:03.560Z,12.63
2022-07-31T05:29:31.470Z,12.45
2022-07-31T05:32:00.563Z,10.90
2022-07-31T05:34:29.910Z,11.32
2022-07-31T05:36:59.539Z,11.15
2022-07-31T05:39:26.976Z,9.77
2022-07-31T05:41:54.810Z,13.77
2022-07-31T05:44:22.227Z,9.63
2022-07-31T05:49:16.926Z,13.60
2022-07-31T05:51:45.967Z,9.30
2022-07-31T05:54:14.538Z,10.75
2022-07-31T05:56:42.314Z,9.70
2022-07-31T05:59:10.110Z,12.02
2022-07-31T06:01:37.973Z,10.90
2022-07-31T06:04:06.449Z,11.05
2022-07-31T06:06:33.678Z,10.38
2022-07-31T06:09:04.406Z,11.07
2022-07-31T06:11:32.395Z,12.68
2022-07-31T06:13:59.729Z,11.52
2022-07-31T06:16:26.789Z,10.85
2022-07-31T06:18:54.226Z,14.18
2022-07-31T06:23:48.263Z,11.80
2022-07-31T06:26:15.267Z,13.70
2022-07-31T06:28:48.870Z,12.95
2022-07-31T06:31:18.611Z,11.27
2022-07-31T06:33:48.229Z,10.90
2022-07-31T06:36:17.613Z,10.55
2022-07-31T06:38:46.319Z,12.32
2022-07-31T06:41:35.551Z,12.38
2022-07-31T06:44:06.010Z,11.60
2022-07-31T06:46:33.793Z,10.02
2022-07-31T06:49:06.880Z,10.27
2022-07-31T06:51:37.702Z,9.50
2022-07-31T06:54:09.857Z,9.88
2022-07-31T06:56:40.349Z,10.43
2022-07-31T06:59:08.320Z,11.35
2022-07-31T07:01:36.541Z,10.98
2022-07-31T07:04:04.850Z,9.85
2022-07-31T07:06:36.066Z,9.38
2022-07-31T07:09:03.672Z,9.02
2022-07-31T07:11:33.222Z,10.32
2022-07-31T07:14:00.848Z,9.70
2022-07-31T07:16:29.752Z,8.82
2022-07-31T07:18:57.653Z,8.80
2022-07-31T07:21:32.355Z,8.30
2022-07-31T07:24:03.089Z,12.00
2022-07-31T07:26:31.630Z,8.63
2022-07-31T07:28:59.851Z,10.13
2022-07-31T07:31:27.829Z,8.73
2022-07-31T07:33:56.635Z,10.93
2022-07-31T07:36:30.063Z,10.07
2022-07-31T07:38:58.398Z,11.15
2022-07-31T07:41:26.267Z,10.05
2022-07-31T07:43:54.037Z,10.80
2022-07-31T07:46:26.088Z,9.90
2022-07-31T07:48:53.277Z,9.05
2022-07-31T07:51:23.673Z,7.55
2022-07-31T07:53:55.078Z,9.27
2022-07-31T07:56:25.114Z,7.18
2022-07-31T07:58:54.474Z,7.75
2022-07-31T08:01:21.696Z,9.02
2022-07-31T08:03:52.060Z,7.78
2022-07-31T08:06:21.160Z,9.38
2022-07-31T08:08:48.431Z,8.27
2022-07-31T08:11:17.022Z,7.03
2022-07-31T08:13:49.538Z,11.30
2022-07-31T08:16:17.392Z,7.78
2022-07-31T08:18:46.797Z,6.47
2022-07-31T08:21:14.747Z,8.15
2022-07-31T08:23:41.921Z,9.13
2022-07-31T08:26:09.376Z,7.05
2022-07-31T08:28:37.929Z,8.80
2022-07-31T08:31:08.343Z,8.60
2022-07-31T08:33:35.138Z,9.02
2022-07-31T08:36:01.916Z,6.45
2022-07-31T08:38:29.381Z,9.73
2022-07-31T08:40:56.284Z,6.72
2022-07-31T08:44:03.250Z,6.72
2022-07-31T08:46:11.037Z,8.95
2022-07-31T08:48:40.664Z,5.65
2022-07-31T08:51:08.006Z,8.73
2022-07-31T08:53:37.856Z,6.15
2022-07-31T08:56:06.668Z,8.73
2022-07-31T08:58:38.663Z,5.80
2022-07-31T09:01:06.369Z,5.00
2022-07-31T09:03:34.993Z,8.20
2022-07-31T09:06:01.960Z,5.70
2022-07-31T09:08:33.445Z,5.80
2022-07-31T09:11:14.897Z,5.57
2022-07-31T09:14:03.344Z,5.07
2022-07-31T09:16:31.421Z,5.43
2022-07-31T09:19:51.655Z,4.50
2022-07-31T09:21:53.373Z,6.20
2022-07-31T09:24:39.665Z,4.88
2022-07-31T09:27:10.544Z,6.95
2022-07-31T09:29:44.376Z,7.20
2022-07-31T09:32:19.015Z,6.00
2022-07-31T09:34:47.961Z,5.95
2022-07-31T09:37:19.897Z,6.72
2022-07-31T09:39:54.398Z,4.13
2022-07-31T09:42:25.560Z,7.13
2022-07-31T09:44:52.576Z,6.22
2022-07-31T09:47:38.250Z,6.72
2022-07-31T09:50:06.414Z,7.07
2022-07-31T09:52:34.018Z,4.90
2022-07-31T09:55:16.981Z,4.53
2022-07-31T09:57:55.979Z,5.30
2022-07-31T10:00:23.802Z,4.82
2022-07-31T10:02:52.953Z,4.75
2022-07-31T10:05:23.318Z,6.15
2022-07-31T10:07:50.473Z,6.63
2022-07-31T10:10:17.748Z,4.57
2022-07-31T10:12:49.074Z,5.72
2022-07-31T10:15:17.558Z,5.28
2022-07-31T10:17:47.539Z,4.88
2022-07-31T10:20:22.111Z,4.75
2022-07-31T10:22:56.048Z,9.48
2022-07-31T10:27:57.379Z,3.78
2022-07-31T10:30:28.091Z,5.75
2022-07-31T10:32:56.687Z,4.70
2022-07-31T10:35:23.544Z,5.07
2022-07-31T10:38:30.340Z,4.82
2022-07-31T10:41:08.117Z,3.33
2022-07-31T10:43:57.762Z,4.55
2022-07-31T10:46:29.365Z,2.50
2022-07-31T10:48:57.679Z,6.38
2022-07-31T10:51:27.729Z,7.18
2022-07-31T10:54:06.174Z,2.45
2022-07-31T10:56:44.521Z,5.55
2022-07-31T10:59:12.967Z,4.30
2022-07-31T11:01:53.318Z,4.82
2022-07-31T11:04:32.513Z,3.97
2022-07-31T11:07:00.184Z,6.07
2022-07-31T11:09:29.182Z,4.40
2022-07-31T11:11:57.397Z,2.53
2022-07-31T11:14:39.708Z,3.55
2022-07-31T11:17:07.548Z,7.88
2022-07-31T11:19:43.015Z,3.67
2022-07-31T11:22:32.104Z,3.60
2022-07-31T11:25:04.091Z,2.60
2022-07-31T11:27:31.819Z,2.85
2022-07-31T11:30:13.001Z,3.00
2022-07-31T11:32:41.515Z,3.95
2022-07-31T11:35:14.145Z,4.10
2022-07-31T11:37:56.489Z,6.03
2022-07-31T11:40:27.859Z,2.57
2022-07-31T11:43:23.552Z,5.53
2022-07-31T11:45:48.310Z,6.20
2022-07-31T11:48:19.359Z,2.75
2022-07-31T11:50:47.522Z,4.13
2022-07-31T11:53:14.685Z,3.95
2022-07-31T11:55:49.938Z,2.53
2022-07-31T11:58:18.908Z,4.68
2022-07-31T12:00:50.555Z,3.15
2022-07-31T12:03:23.130Z,4.05
2022-07-31T12:05:55.240Z,4.38
2022-07-31T12:08:24.045Z,3.42
2022-07-31T12:10:55.526Z,2.80
2022-07-31T12:13:24.145Z,3.00
2022-07-31T12:15:59.584Z,3.30
2022-07-31T12:18:28.576Z,4.72
2022-07-31T12:20:56.975Z,4.68
2022-07-31T12:23:40.819Z,4.20
2022-07-31T12:26:09.505Z,2.58
2022-07-31T12:28:36.730Z,3.55
2022-07-31T12:31:04.058Z,3.80
2022-07-31T12:33:41.008Z,5.47
2022-07-31T12:36:16.229Z,4.93
2022-07-31T12:38:48.441Z,3.08
2022-07-31T12:41:16.623Z,3.28
2022-07-31T12:43:50.915Z,2.88
2022-07-31T12:46:35.048Z,2.47
2022-07-31T12:49:02.540Z,4.30
2022-07-31T12:51:45.463Z,4.82
2022-07-31T12:54:18.061Z,2.58
2022-07-31T12:56:47.559Z,2.15
2022-07-31T12:59:14.529Z,2.58
2022-07-31T13:01:45.493Z,3.45
2022-07-31T13:04:19.028Z,1.67
2022-07-31T13:06:49.049Z,3.17
2022-07-31T13:09:16.228Z,3.13
2022-07-31T13:11:46.645Z,6.63
2022-07-31T13:14:20.517Z,3.88
2022-07-31T13:16:48.266Z,4.40
2022-07-31T13:19:15.611Z,4.50
2022-07-31T13:21:49.478Z,3.15
2022-07-31T13:24:21.126Z,2.65
2022-07-31T13:26:49.264Z,2.65
2022-07-31T13:29:17.883Z,2.78
2022-07-31T13:31:44.882Z,5.22
2022-07-31T13:34:12.975Z,4.57
2022-07-31T13:36:43.001Z,3.75
2022-07-31T13:39:10.215Z,5.15
2022-07-31T13:41:39.704Z,4.82
2022-07-31T13:44:08.273Z,4.95
2022-07-31T13:46:35.417Z,4.82
2022-07-31T13:49:02.730Z,2.70
2022-07-31T13:51:30.100Z,2.83
2022-07-31T13:53:57.292Z,4.00
2022-07-31T13:56:39.145Z,2.17
2022-07-31T13:59:14.146Z,2.38
2022-07-31T14:02:13.437Z,4.80
2022-07-31T14:04:38.185Z,3.30
2022-07-31T14:07:06.855Z,3.17
2022-07-31T14:09:35.155Z,4.53
2022-07-31T14:12:04.459Z,1.90
2022-07-31T14:14:34.136Z,3.55
2022-07-31T14:17:01.541Z,3.70
2022-07-31T14:19:28.795Z,1.90
2022-07-31T14:21:57.841Z,4.75
2022-07-31T14:24:30.598Z,1.60
2022-07-31T14:26:57.726Z,1.90
2022-07-31T14:29:24.916Z,2.25
2022-07-31T14:31:53.039Z,2.83
2022-07-31T14:34:24.376Z,4.68
2022-07-31T14:37:03.300Z,2.25
2022-07-31T14:39:31.181Z,4.85
2022-07-31T14:42:01.214Z,2.45
2022-07-31T14:44:31.430Z,1.83
2022-07-31T14:47:00.032Z,3.95
2022-07-31T14:50:09.498Z,2.10
2022-07-31T14:52:23.146Z,2.95
2022-07-31T14:54:51.672Z,1.80
2022-07-31T14:57:22.277Z,2.50
2022-07-31T14:59:51.499Z,5.20
2022-07-31T15:02:22.509Z,2.17
2022-07-31T15:04:53.370Z,3.10
2022-07-31T15:07:41.180Z,6.57
2022-07-31T15:10:10.365Z,4.20
2022-07-31T15:12:42.478Z,4.18
2022-07-31T15:15:14.222Z,2.05
2022-07-31T15:17:44.200Z,3.25
2022-07-31T15:20:11.683Z,3.33
2022-07-31T15:22:38.587Z,2.05
2022-07-31T15:25:06.244Z,3.25
2022-07-31T15:27:33.233Z,1.90
2022-07-31T15:30:06.467Z,3.95
2022-07-31T15:32:39.219Z,2.10
2022-07-31T15:35:08.055Z,3.30
2022-07-31T15:37:39.286Z,3.70
2022-07-31T15:40:08.102Z,2.58
2022-07-31T15:42:40.818Z,2.15
2022-07-31T15:45:20.589Z,9.82
2022-07-31T15:47:48.213Z,3.80
2022-07-31T15:50:17.800Z,3.40
2022-07-31T15:52:44.963Z,4.97
2022-07-31T15:55:11.957Z,2.13
2022-07-31T15:57:39.555Z,3.38
2022-07-31T16:00:10.548Z,4.32
2022-07-31T16:02:37.747Z,2.40
2022-07-31T16:05:21.311Z,2.10
2022-07-31T16:08:29.170Z,3.83
2022-07-31T16:10:35.435Z,4.43
2022-07-31T16:13:03.486Z,4.53
2022-07-31T16:15:30.904Z,4.05
2022-07-31T16:17:58.118Z,3.88
2022-07-31T16:20:26.806Z,2.40
2022-07-31T16:22:56.484Z,2.65
2022-07-31T16:25:24.964Z,2.80
2022-07-31T16:27:52.271Z,2.67
2022-07-31T16:30:19.192Z,7.63
2022-07-31T16:32:46.367Z,2.78
2022-07-31T16:35:13.244Z,2.88
2022-07-31T16:37:51.234Z,3.10
2022-07-31T16:40:28.768Z,4.53
2022-07-31T16:42:56.460Z,13.15
2022-07-31T16:45:23.543Z,2.88
2022-07-31T16:47:51.523Z,2.90
2022-07-31T16:50:18.530Z,2.00
2022-07-31T16:52:45.356Z,1.92
2022-07-31T16:55:11.946Z,2.47
2022-07-31T16:57:38.533Z,5.68
2022-07-31T17:00:07.270Z,2.75
2022-07-31T17:02:34.300Z,2.28
2022-07-31T17:05:00.983Z,11.57
2022-07-31T17:07:28.618Z,4.90
2022-07-31T17:09:55.222Z,5.63
2022-07-31T17:12:21.856Z,2.63
2022-07-31T17:14:48.765Z,1.92
2022-07-31T17:17:16.980Z,4.03
2022-07-31T17:19:46.820Z,2.17
2022-07-31T17:22:17.798Z,2.88
2022-07-31T17:24:50.522Z,4.63
2022-07-31T17:27:17.969Z,1.88
2022-07-31T17:29:44.791Z,2.05
2022-07-31T17:32:11.756Z,2.30
2022-07-31T17:34:39.354Z,3.05
2022-07-31T17:37:07.406Z,4.30
2022-07-31T17:39:35.389Z,1.95
2022-07-31T17:42:02.159Z,5.00
2022-07-31T17:44:29.570Z,2.50
2022-07-31T17:46:57.871Z,1.95
2022-07-31T17:49:25.158Z,2.25
2022-07-31T17:52:07.990Z,2.50
2022-07-31T17:54:34.987Z,2.83
2022-07-31T17:57:02.249Z,2.42
2022-07-31T17:59:29.396Z,5.82
2022-07-31T18:02:06.887Z,5.70
2022-07-31T18:04:37.245Z,4.47
2022-07-31T18:07:05.497Z,3.92
2022-07-31T18:09:33.053Z,3.38
2022-07-31T18:12:00.280Z,5.88
2022-07-31T18:14:27.292Z,5.45
2022-07-31T18:16:58.754Z,2.40
2022-07-31T18:19:25.506Z,2.13
2022-07-31T18:21:52.826Z,5.20
2022-07-31T18:24:20.802Z,8.85
2022-07-31T18:26:47.798Z,2.55
2022-07-31T18:29:19.781Z,4.00
2022-07-31T18:31:47.004Z,5.93
2022-07-31T18:34:13.956Z,4.03
2022-07-31T18:36:40.811Z,3.85
2022-07-31T18:39:07.811Z,3.90
2022-07-31T18:41:34.553Z,3.13
2022-07-31T18:44:01.545Z,4.70
2022-07-31T18:46:28.272Z,5.57
2022-07-31T18:48:56.267Z,3.05
2022-07-31T18:51:25.114Z,7.13
2022-07-31T18:53:52.011Z,4.40
2022-07-31T18:56:21.793Z,6.07
2022-07-31T18:58:52.198Z,3.05
2022-07-31T19:01:19.118Z,8.68
2022-07-31T19:03:45.908Z,2.47
2022-07-31T19:06:12.995Z,3.72
2022-07-31T19:08:39.694Z,3.45
2022-07-31T19:11:06.485Z,3.20
2022-07-31T19:13:33.417Z,5.57
2022-07-31T19:16:00.225Z,5.07
2022-07-31T19:18:30.282Z,5.43
2022-07-31T19:21:23.206Z,2.40
2022-07-31T19:23:44.081Z,5.00
2022-07-31T19:26:10.917Z,2.83
2022-07-31T19:28:39.844Z,3.22
2022-07-31T19:31:06.823Z,3.50
2022-07-31T19:33:33.431Z,7.32
2022-07-31T19:36:02.660Z,2.33
2022-07-31T19:38:31.582Z,4.10
2022-07-31T19:40:58.537Z,4.53
2022-07-31T19:43:25.222Z,4.88
2022-07-31T19:45:59.816Z,5.25
2022-07-31T19:48:40.974Z,5.20
2022-07-31T19:51:08.154Z,4.10
2022-07-31T19:53:35.084Z,3.25
2022-07-31T19:56:05.731Z,3.97
2022-07-31T19:58:36.354Z,4.40
2022-07-31T20:01:05.094Z,5.63
2022-07-31T20:03:32.115Z,3.67
2022-07-31T20:05:58.910Z,4.70
2022-07-31T20:08:25.626Z,6.43
2022-07-31T20:10:52.449Z,4.18
2022-07-31T20:13:19.228Z,3.58
2022-07-31T20:15:52.563Z,3.55
2022-07-31T20:18:27.171Z,4.22
2022-07-31T20:20:59.148Z,3.05
2022-07-31T20:23:27.057Z,3.97
2022-07-31T20:25:53.887Z,3.88
2022-07-31T20:28:20.768Z,2.88
2022-07-31T20:30:47.407Z,2.92
2022-07-31T20:33:14.234Z,7.53
2022-07-31T20:35:48.383Z,5.22
2022-07-31T20:38:17.230Z,3.28
2022-07-31T20:40:52.972Z,2.85
2022-07-31T20:43:28.268Z,3.30
2022-07-31T20:45:59.280Z,3.43
2022-07-31T20:48:31.703Z,4.65
2022-07-31T20:50:59.698Z,3.00
2022-07-31T20:53:26.622Z,5.03
2022-07-31T20:55:53.342Z,5.45
2022-07-31T20:58:21.479Z,5.78
2022-07-31T21:00:49.438Z,5.25
2022-07-31T21:03:16.994Z,4.32
2022-07-31T21:05:44.489Z,3.72
2022-07-31T21:08:12.125Z,5.05
2022-07-31T21:10:39.935Z,6.97
2022-07-31T21:13:06.551Z,4.32
2022-07-31T21:15:41.987Z,5.07
2022-07-31T21:18:12.023Z,4.60
2022-07-31T21:20:52.045Z,4.28
2022-07-31T21:23:24.512Z,11.23
2022-07-31T21:25:52.512Z,3.50
2022-07-31T21:28:19.375Z,3.58
2022-07-31T21:30:46.932Z,3.30
2022-07-31T21:33:13.688Z,5.07
2022-07-31T21:35:40.900Z,4.50
2022-07-31T21:38:12.146Z,6.32
2022-07-31T21:40:39.997Z,5.28
2022-07-31T21:43:07.221Z,5.38
2022-07-31T21:45:49.712Z,8.00
2022-07-31T21:48:22.743Z,3.10
2022-07-31T21:50:49.394Z,3.22
2022-07-31T21:53:16.015Z,2.97
2022-07-31T21:55:42.799Z,3.20
2022-07-31T21:58:09.786Z,3.47
2022-07-31T22:00:36.988Z,4.00
2022-07-31T22:03:04.745Z,2.95
2022-07-31T22:05:50.853Z,3.33
2022-07-31T22:08:17.715Z,2.90
2022-07-31T22:10:44.666Z,3.05
2022-07-31T22:13:11.341Z,3.53
2022-07-31T22:15:55.387Z,8.63
2022-07-31T22:18:29.788Z,4.03
2022-07-31T22:20:57.525Z,3.45
2022-07-31T22:23:25.269Z,2.83
2022-07-31T22:25:51.981Z,2.95
2022-07-31T22:28:20.340Z,3.50
2022-07-31T22:30:47.377Z,6.10
2022-07-31T22:33:14.615Z,2.50
2022-07-31T22:35:41.306Z,3.28
2022-07-31T22:38:11.741Z,3.20
2022-07-31T22:40:38.637Z,2.53
2022-07-31T22:44:09.881Z,4.63
2022-07-31T22:45:53.650Z,6.55
2022-07-31T22:48:21.918Z,3.30
2022-07-31T22:50:49.335Z,3.15
2022-07-31T22:53:15.942Z,2.95
2022-07-31T22:55:42.591Z,3.15
2022-07-31T22:58:11.499Z,2.70
2022-07-31T23:00:38.518Z,2.90
2022-07-31T23:03:05.245Z,3.67
2022-07-31T23:06:02.759Z,2.60
2022-07-31T23:08:18.630Z,3.53
2022-07-31T23:10:45.263Z,3.80
2022-07-31T23:13:11.824Z,4.45
2022-07-31T23:15:38.441Z,2.83
2022-07-31T23:18:05.065Z,5.80
2022-07-31T23:20:31.951Z,10.13
2022-07-31T23:22:58.587Z,3.72
2022-07-31T23:25:25.203Z,9.10
2022-07-31T23:27:51.910Z,5.93
2022-07-31T23:30:18.564Z,4.47
2022-07-31T23:32:45.267Z,4.10
2022-07-31T23:35:11.955Z,2.60
2022-07-31T23:37:38.677Z,3.03
2022-07-31T23:40:06.159Z,3.75
2022-07-31T23:42:38.685Z,2.63
2022-07-31T23:45:11.332Z,5.85
2022-07-31T23:47:45.656Z,2.80
2022-07-31T23:50:13.870Z,3.83
2022-07-31T23:52:40.650Z,3.67
2022-07-31T23:55:07.765Z,4.85
2022-07-31T23:57:36.217Z,4.05
